• Join FlightAware (Why Join?)
  • Login
  • US Flag 
09:43PM EDT


 

Airport Tracker/Info


-or-


 

Live Flight TrackerFlight Track Log ✈ N622MA ✈ 28-Apr-2012 ✈ KSAT - KRAS

Flight Track Log - Related Links

Times and Time Zones

All times are in EDT time to prevent confusion due to time zone crossing. See the N622MA flight status page for this flight to view local times or setup timezone preferences in your user account.

Time Position Orientation Groundspeed Altitude Reporting Facility
EDT Latitude Longitude Course Direction KTS MPH feet Rate Location/Type
11:03AM 29.5331 -98.4636 73° East 113 130 1,200  Level Houston Center
11:05AM 29.5458 -98.4167 71° East 135 155 2,200 780 Climbing Houston Center
11:06AM 29.5583 -98.3744 71° East 123 142 3,100 840 Climbing Houston Center
11:07AM 29.5683 -98.3417 57° Northeast 132 152 3,800 720 Climbing Houston Center
11:08AM 29.5933 -98.2981 63° Northeast 136 157 4,600 780 Climbing Houston Center
11:09AM 29.6097 -98.2608 64° Northeast 136 157 5,500 840 Climbing Houston Center
11:10AM 29.6286 -98.2167 66° East 131 151 6,300 720 Climbing Houston Center
11:11AM 29.6431 -98.1794 81° East 136 157 7,000 300 Climbing Houston Center
11:12AM 29.6494 -98.1319 87° East 130 150 7,000  Level Houston Center
11:13AM 29.6517 -98.0819 89° East 159 183 7,000  Level Houston Center
11:14AM 29.6525 -98.0200 105° East 165 190 7,000  Level Houston Center
11:15AM 29.6403 -97.9692 92° East 170 196 7,000  Level Houston Center
11:16AM 29.6386 -97.9164 90° East 160 184 7,000  Level Houston Center
11:17AM 29.6389 -97.8664 81° East 160 184 7,000 -60 Level Houston Center
11:18AM 29.6453 -97.8189 87° East 160 184 6,900 -60 Descending Houston Center
11:19AM 29.6475 -97.7667 92° East 160 184 6,900  Level Houston Center
11:20AM 29.6458 -97.7139 87° East 160 184 7,000  Climbing Houston Center
11:21AM 29.6481 -97.6639 90° East 160 184 7,000  Level Houston Center
11:22AM 29.6481 -97.6114 90° East 160 184 7,000  Level Houston Center
11:33AM 29.6483 -97.0069 92° East 179 206 7,100  Climbing Houston Center
11:34AM 29.6464 -96.9472 87° East 180 207 7,100 -60 Level Houston Center
11:35AM 29.6486 -96.8925 85° East 177 204 7,000  Descending Houston Center
11:36AM 29.6528 -96.8378 90° East 171 197 7,100  Climbing Houston Center
11:37AM 29.6528 -96.7803 87° East 171 197 7,100  Level Houston Center
11:38AM 29.6547 -96.7303 90° East 169 194 7,100  Level Houston Center
11:39AM 29.6547 -96.6706 87° East 167 192 7,100  Level Houston Center
11:40AM 29.6569 -96.6158 90° East 168 193 7,100 -60 Level Houston Center
11:41AM 29.6569 -96.5583 90° East 170 196 7,000 -60 Descending Houston Center
11:42AM 29.6567 -96.5081 92° East 170 196 7,000 -360 Level Houston Center
11:43AM 29.6544 -96.4483 88° East 176 203 6,300 -540 Descending Houston Center
11:44AM 29.6567 -96.3864 77° East 187 215 5,900 -540 Descending Houston Center
11:45AM 29.6692 -96.3247 77° East 196 226 5,300 -420 Descending Houston Center
11:46AM 29.6819 -96.2608 76° East 195 224 5,100 -180 Descending Houston Center
11:47AM 29.6942 -96.2039 73° East 180 207 5,000 -60 Descending Houston Center
11:48AM 29.7086 -96.1497 83° East 178 205 5,000  Level Houston Center
11:49AM 29.7144 -96.0972 86° East 171 197 5,100  Climbing Houston Center
11:50AM 29.7183 -96.0400 82° East 174 200 5,000  Descending Houston Center
11:51AM 29.7242 -95.9900 93° East 172 198 5,100  Climbing Houston Center
11:52AM 29.7217 -95.9350 97° East 165 190 5,100  Level Houston Center
11:53AM 29.7153 -95.8750 96° East 166 191 5,100 -60 Level Houston Center
11:54AM 29.7106 -95.8197 95° East 169 194 5,000  Descending Houston Center
11:55AM 29.7061 -95.7622 96° East 170 196 5,100  Climbing Houston Center
11:56AM 29.7014 -95.7094 95° East 168 193 5,100 -300 Level Houston Center
11:57AM 29.6969 -95.6542 96° East 174 200 4,600 -540 Descending Houston Center
11:58AM 29.6922 -95.5992 71° East 183 211 4,100 -360 Descending Houston Center
11:59AM 29.7106 -95.5378 59° Northeast 192 221 3,900 -480 Descending Houston Center
12:00PM 29.7372 -95.4861 62° Northeast 193 222 3,200 -780 Descending Houston Center
12:01PM 29.7594 -95.4389 118° Southeast 185 213 2,500 -600 Descending Houston Center
12:02PM 29.7397 -95.3953 139° Southeast 121 139 2,000 -240 Descending Houston Center
12:04PM 29.7153 -95.3706 133° Southeast 110 127 2,000 -420 Level Houston Center
12:04PM 29.6931 -95.3433 131° Southeast 125 144 1,300 -780 Descending Houston Center
12:05PM 29.6689 -95.3114 140° Southeast 137 158 600 -360 Descending Houston Center
12:06PM 29.6403 -95.2842 198° South 117 135 600 540 Level Houston Center
12:07PM 29.6172 -95.2928 231° Southwest 117 135 1,800 960 Climbing Houston Center
12:09PM 29.5956 -95.3233 226° Southwest 112 129 2,600 600 Climbing Houston Center
12:10PM 29.5719 -95.3511 234° Southwest 124 143 3,100 180 Climbing Houston Center
12:11PM 29.5500 -95.3861 237° Southwest 147 169 3,000 60 Descending Houston Center
12:12PM 29.5236 -95.4328 238° Southwest 146 168 3,300 420 Climbing Houston Center
12:12PM 29.5083 -95.4608 236° Southwest 125 144 3,900 540 Climbing Houston Center
12:14PM 29.4864 -95.4983 241° Southwest 132 152 4,400 480 Climbing Houston Center
12:15PM 29.4708 -95.5311 231° Southwest 119 137 5,000 540 Climbing Houston Center
12:16PM 29.4492 -95.5614 223° Southwest 120 138 5,600 480 Climbing Houston Center
12:17PM 29.4231 -95.5889 223° Southwest 122 140 6,000 180 Climbing Houston Center
12:18PM 29.3908 -95.6233 223° Southwest 150 173 6,000  Level Houston Center
12:19PM 29.3608 -95.6558 223° Southwest 145 167 6,000  Level Houston Center
12:20PM 29.3347 -95.6833 227° Southwest 146 168 6,000  Level Houston Center
12:21PM 29.3025 -95.7225 227° Southwest 147 169 6,000  Level Houston Center
12:22PM 29.2742 -95.7572 223° Southwest 146 168 6,000  Level Houston Center
12:23PM 29.2525 -95.7800 223° Southwest 176 203 6,000  Level Houston Center
12:24PM 29.2225 -95.8122 221° Southwest 165 190 6,000  Level Houston Center
12:25PM 29.1922 -95.8419 227° Southwest 154 177 6,000  Level Houston Center
12:26PM 29.1642 -95.8764 225° Southwest 149 171 6,000  Level Houston Center
12:27PM 29.1358 -95.9086 223° Southwest 149 171 6,000  Level Houston Center
12:28PM 29.1058 -95.9408 220° Southwest 144 166 6,000  Level Houston Center
12:29PM 29.0756 -95.9703 227° Southwest 144 166 6,000 -60 Level Houston Center
12:30PM 29.0472 -96.0050 225° Southwest 144 166 5,900 -60 Descending Houston Center
12:31PM 29.0192 -96.0369 223° Southwest 144 166 5,900  Level Houston Center
12:32PM 28.9889 -96.0689 225° Southwest 144 166 6,000  Climbing Houston Center
12:33PM 28.9608 -96.1011 220° Southwest 144 166 5,900 -60 Descending Houston Center
12:34PM 28.9306 -96.1306 212° Southwest 144 166 5,900  Level Houston Center
12:35PM 28.8964 -96.1553 216° Southwest 144 166 5,900  Level Houston Center
12:36PM 28.8642 -96.1822 221° Southwest 144 166 6,000  Climbing Houston Center
12:37PM 28.8339 -96.2119 216° Southwest 151 174 5,900 -60 Descending Houston Center
12:38PM 28.8017 -96.2389 214° Southwest 151 174 5,900  Level Houston Center
12:39PM 28.7694 -96.2636 221° Southwest 151 174 5,900  Level Houston Center
12:40PM 28.7394 -96.2931 218° Southwest 151 174 5,900  Level Houston Center
12:41PM 28.7069 -96.3225 218° Southwest 151 174 5,900  Level Houston Center
12:42PM 28.6769 -96.3494 218° Southwest 151 174 5,900  Level Houston Center
12:43PM 28.6467 -96.3767 217° Southwest 151 174 6,000  Climbing Houston Center
12:44PM 28.6122 -96.4058 216° Southwest 151 174 6,000  Level Houston Center
12:45PM 28.5800 -96.4328 219° Southwest 156 180 6,000 -60 Level Houston Center
12:47PM 28.5153 -96.4914 219° Southwest 161 185 5,900 -60 Descending Houston Center
12:48PM 28.4831 -96.5206 215° Southwest 161 185 5,900  Level Houston Center
12:49PM 28.4464 -96.5497 220° Southwest 161 185 5,900  Level Houston Center
12:50PM 28.4161 -96.5789 219° Southwest 156 180 6,000  Climbing Houston Center
12:51PM 28.3839 -96.6081 216° Southwest 156 180 5,900 -60 Descending Houston Center
12:51PM 28.3536 -96.6328 223° Southwest 149 171 5,900 -360 Level Houston Center
12:52PM 28.3386 -96.6486 216° Southwest 150 173 5,500 -720 Descending Houston Center
12:53PM 28.3147 -96.6686 210° Southwest 161 185 5,100 -420 Descending Houston Center
12:53PM 28.2914 -96.6842 216° Southwest 159 183 5,000 -120 Descending Houston Center
12:54PM 28.2589 -96.7108 218° Southwest 144 166 5,000  Level Houston Center
12:55PM 28.2308 -96.7356 222° Southwest 140 161 5,000  Level Houston Center
12:56PM 28.2069 -96.7603 204° Southwest 139 160 5,000  Level Houston Center
12:57PM 28.1772 -96.7753 252° West 136 157 5,000 -60 Level Houston Center
12:58PM 28.1678 -96.8078 245° Southwest 137 158 4,900 -60 Descending Houston Center
12:59PM 28.1494 -96.8517 234° Southwest 137 158 4,900  Level Houston Center
01:00PM 28.1272 -96.8858 229° Southwest 142 163 4,900 60 Level Houston Center
01:00PM 28.1097 -96.9086 239° Southwest 142 163 5,000  Climbing Houston Center
01:01PM 28.0869 -96.9522 236° Southwest 143 165 5,000 -180 Level Houston Center
01:02PM 28.0647 -96.9889 244° Southwest 144 166 4,700 -600 Descending Houston Center
01:04PM 28.0394 -97.0464 232° Southwest 152 175 3,700 -720 Descending Houston Center
01:04PM 28.0108 -97.0872 243° Southwest 167 192 3,100 -420 Descending Houston Center
01:06PM 27.9925 -97.1286 232° Southwest 164 189 2,900 -60 Descending Houston Center
01:07PM 27.9658 -97.1675 242° Southwest 129 148 3,000  Climbing Houston Center
01:08PM 27.9475 -97.2064 237° Southwest 125 144 3,000  Level Houston Center
01:09PM 27.9253 -97.2453 206° Southwest 124 143 3,000  Level Houston Center
01:10PM 27.9058 -97.2558 116° Southeast 111 128 3,000 -300 Level Houston Center
01:11PM 27.8925 -97.2247 116° Southeast 93 107 2,500 -540 Descending Houston Center